Hersey, Michigan
Current Conditions -  °F | °C
As of 9:15 AM on Saturday 25 Oct 2014 (Local Time) from KRQB Reporting Station
Haze Haze  
Wind Chill: 55°   Ceiling: 1200
Heat Index: 55°   Visibility: 4mi
Dew Point: 55°   Wind: 8mph
Humidity: 100%   Direction: 280°W
Pressure: 29.8"   Gusts: NA
Location:  43.85°N, 85.44°W
Report Text: KRQB 251315Z AUTO 28007KT 4SM BR BKN012 OVC018 13/13 A2980 RMK AO2 T01260126
Loading
Personal Weather Stations






























Interactive Weather Map
Tropical Storm Tracking
New forecast layout! Learn more

10-Day Weather Forecast

Advertisements
Track Severe Weather on mobile